NOAA Web Site Link Tides and Currents Home Page Transparent placeholder image

PORTS® Data Listing: 8551910 Reedy Point, DE

CO-OPS RAW PORTS DATA

************************      PRELIMINARY DATA      ************************** 

     THIS RAW DATA HAS NOT BEEN SUBJECT TO THE NATIONAL OCEAN SERVICE'S        
     QUALITY CONTROL OR QUALITY ASSURANCE PROCEDURES AND DOES NOT MEET         
     THE CRITERIA AND STANDARDS OF OFFICIAL NATIONAL OCEAN SERVICE             
     DATA.  IT IS RELEASED FOR LIMITED PUBLIC USE AS PRELIMINARY DATA TO       
     BE USED ONLY WITH APPROPRIATE CAUTION.                                    

************************      PRELIMINARY DATA      ************************** 


       CD   -   Calendar date
       T    -   Time
       TZ   -   Timezone
       PW   -   Predicted water level (feet above MLLW)
       OW   -   Observed water level (feet above MLLW)
       WS   -   Wind speed (knots)
       WD   -   Wind direction (degrees true)
       WG   -   Wind gust (knots)
       AT   -   Air temperature (degrees farenheit)
       WT   -   Water temperature (degrees farenheit)
       AP   -   Air pressure (millibars)
       SA   -   Salinty (PSU - Practical Salinity Units)
       SG   -   Specific gravity
       RH   -   Relative humidity
       AG   -   Air gap (feet)
       VI   -   Visibility (nautical miles)

       ** NOTE **
       A variable that has its data fields filled with "9"s, indicates that
       data was not collected for that sample period.
       **********


STATION NAME: Reedy Point (8551910)
****************************************************************************************************
    CD       T    TZ    PW     OW    WS   WD   WG    AT    WT    AP    SA    SG     RH    AG   VI
****************************************************************************************************
2018/10/18 21:36 EDT    4.18   3.47 -999 -999 -999 -99.9  63.1 -999.9 -9.9 -9.999 -99.9 -99.99 -9.99
2018/10/18 21:42 EDT    4.07   3.39 -999 -999 -999 -99.9  63.2 -999.9 -9.9 -9.999 -99.9 -99.99 -9.99
2018/10/18 21:48 EDT    3.96 -99.99 -999 -999 -999 -99.9 -99.9 -999.9 -9.9 -9.999 -99.9 -99.99 -9.99
2018/10/18 21:54 EDT    3.85   3.19 -999 -999 -999 -99.9  63.2 -999.9 -9.9 -9.999 -99.9 -99.99 -9.99
2018/10/18 22:00 EDT    3.73   3.06 -999 -999 -999 -99.9  63.2 -999.9 -9.9 -9.999 -99.9 -99.99 -9.99
2018/10/18 22:06 EDT    3.62   2.94 -999 -999 -999 -99.9  63.3 -999.9 -9.9 -9.999 -99.9 -99.99 -9.99
2018/10/18 22:12 EDT    3.51   2.82 -999 -999 -999 -99.9  63.3 -999.9 -9.9 -9.999 -99.9 -99.99 -9.99
2018/10/18 22:18 EDT    3.39 -99.99 -999 -999 -999 -99.9 -99.9 -999.9 -9.9 -9.999 -99.9 -99.99 -9.99
2018/10/18 22:24 EDT    3.28   2.60 -999 -999 -999 -99.9  63.3 -999.9 -9.9 -9.999 -99.9 -99.99 -9.99
2018/10/18 22:30 EDT    3.17 -99.99 -999 -999 -999 -99.9 -99.9 -999.9 -9.9 -9.999 -99.9 -99.99 -9.99
2018/10/18 22:36 EDT    3.07   2.38 -999 -999 -999 -99.9  63.4 -999.9 -9.9 -9.999 -99.9 -99.99 -9.99
2018/10/18 22:42 EDT    2.96 -99.99 -999 -999 -999 -99.9 -99.9 -999.9 -9.9 -9.999 -99.9 -99.99 -9.99
2018/10/18 22:48 EDT    2.86   2.17 -999 -999 -999 -99.9  63.4 -999.9 -9.9 -9.999 -99.9 -99.99 -9.99
2018/10/18 22:54 EDT    2.75   2.07 -999 -999 -999 -99.9  63.5 -999.9 -9.9 -9.999 -99.9 -99.99 -9.99
2018/10/18 23:00 EDT    2.66   1.96 -999 -999 -999 -99.9  63.5 -999.9 -9.9 -9.999 -99.9 -99.99 -9.99
2018/10/18 23:06 EDT    2.56   1.87 -999 -999 -999 -99.9  63.5 -999.9 -9.9 -9.999 -99.9 -99.99 -9.99
2018/10/18 23:12 EDT    2.46   1.75 -999 -999 -999 -99.9  63.5 -999.9 -9.9 -9.999 -99.9 -99.99 -9.99
2018/10/18 23:18 EDT    2.37   1.66 -999 -999 -999 -99.9  63.5 -999.9 -9.9 -9.999 -99.9 -99.99 -9.99
2018/10/18 23:24 EDT    2.28 -99.99 -999 -999 -999 -99.9 -99.9 -999.9 -9.9 -9.999 -99.9 -99.99 -9.99
2018/10/18 23:30 EDT    2.20   1.47 -999 -999 -999 -99.9  63.5 -999.9 -9.9 -9.999 -99.9 -99.99 -9.99
2018/10/18 23:36 EDT    2.11   1.36 -999 -999 -999 -99.9  63.6 -999.9 -9.9 -9.999 -99.9 -99.99 -9.99
2018/10/18 23:42 EDT    2.03   1.26 -999 -999 -999 -99.9  63.6 -999.9 -9.9 -9.999 -99.9 -99.99 -9.99
2018/10/18 23:48 EDT    1.95   1.18 -999 -999 -999 -99.9  63.6 -999.9 -9.9 -9.999 -99.9 -99.99 -9.99
2018/10/18 23:54 EDT    1.86   1.08 -999 -999 -999 -99.9  63.6 -999.9 -9.9 -9.999 -99.9 -99.99 -9.99
2018/10/19 00:00 EDT    1.79   0.97 -999 -999 -999 -99.9  63.6 -999.9 -9.9 -9.999 -99.9 -99.99 -9.99
2018/10/19 00:06 EDT    1.71   0.90 -999 -999 -999 -99.9  63.6 -999.9 -9.9 -9.999 -99.9 -99.99 -9.99
2018/10/19 00:12 EDT    1.63   0.80 -999 -999 -999 -99.9  63.6 -999.9 -9.9 -9.999 -99.9 -99.99 -9.99
2018/10/19 00:18 EDT    1.56   0.73 -999 -999 -999 -99.9  63.6 -999.9 -9.9 -9.999 -99.9 -99.99 -9.99
2018/10/19 00:24 EDT    1.48   0.65 -999 -999 -999 -99.9  63.6 -999.9 -9.9 -9.999 -99.9 -99.99 -9.99
2018/10/19 00:30 EDT    1.41 -99.99 -999 -999 -999 -99.9 -99.9 -999.9 -9.9 -9.999 -99.9 -99.99 -9.99
2018/10/19 00:36 EDT    1.34   0.51 -999 -999 -999 -99.9  63.6 -999.9 -9.9 -9.999 -99.9 -99.99 -9.99
2018/10/19 00:42 EDT    1.26   0.45 -999 -999 -999 -99.9  63.6 -999.9 -9.9 -9.999 -99.9 -99.99 -9.99
2018/10/19 00:48 EDT    1.19   0.38 -999 -999 -999 -99.9  63.6 -999.9 -9.9 -9.999 -99.9 -99.99 -9.99
2018/10/19 00:54 EDT    1.12   0.32 -999 -999 -999 -99.9  63.6 -999.9 -9.9 -9.999 -99.9 -99.99 -9.99
2018/10/19 01:00 EDT    1.06   0.25 -999 -999 -999 -99.9  63.6 -999.9 -9.9 -9.999 -99.9 -99.99 -9.99
2018/10/19 01:06 EDT    0.99   0.20 -999 -999 -999 -99.9  63.6 -999.9 -9.9 -9.999 -99.9 -99.99 -9.99
2018/10/19 01:12 EDT    0.93   0.13 -999 -999 -999 -99.9  63.6 -999.9 -9.9 -9.999 -99.9 -99.99 -9.99
2018/10/19 01:18 EDT    0.87   0.06 -999 -999 -999 -99.9  63.6 -999.9 -9.9 -9.999 -99.9 -99.99 -9.99
2018/10/19 01:24 EDT    0.82  -0.00 -999 -999 -999 -99.9  63.6 -999.9 -9.9 -9.999 -99.9 -99.99 -9.99
2018/10/19 01:30 EDT    0.77  -0.07 -999 -999 -999 -99.9  63.6 -999.9 -9.9 -9.999 -99.9 -99.99 -9.99
2018/10/19 01:36 EDT    0.72  -0.13 -999 -999 -999 -99.9  63.6 -999.9 -9.9 -9.999 -99.9 -99.99 -9.99
2018/10/19 01:42 EDT    0.68  -0.16 -999 -999 -999 -99.9  63.6 -999.9 -9.9 -9.999 -99.9 -99.99 -9.99
2018/10/19 01:48 EDT    0.65  -0.20 -999 -999 -999 -99.9  63.6 -999.9 -9.9 -9.999 -99.9 -99.99 -9.99
2018/10/19 01:54 EDT    0.63  -0.22 -999 -999 -999 -99.9  63.6 -999.9 -9.9 -9.999 -99.9 -99.99 -9.99
2018/10/19 02:00 EDT    0.61  -0.25 -999 -999 -999 -99.9  63.6 -999.9 -9.9 -9.999 -99.9 -99.99 -9.99
2018/10/19 02:06 EDT    0.60 -99.99 -999 -999 -999 -99.9 -99.9 -999.9 -9.9 -9.999 -99.9 -99.99 -9.99
2018/10/19 02:12 EDT    0.60  -0.28 -999 -999 -999 -99.9  63.6 -999.9 -9.9 -9.999 -99.9 -99.99 -9.99
2018/10/19 02:18 EDT    0.61  -0.25 -999 -999 -999 -99.9  63.5 -999.9 -9.9 -9.999 -99.9 -99.99 -9.99
2018/10/19 02:24 EDT    0.63  -0.22 -999 -999 -999 -99.9  63.5 -999.9 -9.9 -9.999 -99.9 -99.99 -9.99
2018/10/19 02:30 EDT    0.65  -0.21 -999 -999 -999 -99.9  63.5 -999.9 -9.9 -9.999 -99.9 -99.99 -9.99
2018/10/19 02:36 EDT    0.69  -0.17 -999 -999 -999 -99.9  63.5 -999.9 -9.9 -9.999 -99.9 -99.99 -9.99
2018/10/19 02:42 EDT    0.74  -0.09 -999 -999 -999 -99.9  63.5 -999.9 -9.9 -9.999 -99.9 -99.99 -9.99
2018/10/19 02:48 EDT    0.79  -0.02 -999 -999 -999 -99.9  63.5 -999.9 -9.9 -9.999 -99.9 -99.99 -9.99
2018/10/19 02:54 EDT    0.86   0.09 -999 -999 -999 -99.9  63.5 -999.9 -9.9 -9.999 -99.9 -99.99 -9.99
2018/10/19 03:00 EDT    0.93   0.16 -999 -999 -999 -99.9  63.6 -999.9 -9.9 -9.999 -99.9 -99.99 -9.99
2018/10/19 03:06 EDT    1.01   0.28 -999 -999 -999 -99.9  63.8 -999.9 -9.9 -9.999 -99.9 -99.99 -9.99
2018/10/19 03:12 EDT    1.10   0.39 -999 -999 -999 -99.9  63.8 -999.9 -9.9 -9.999 -99.9 -99.99 -9.99
2018/10/19 03:18 EDT    1.19   0.49 -999 -999 -999 -99.9  63.8 -999.9 -9.9 -9.999 -99.9 -99.99 -9.99
2018/10/19 03:24 EDT    1.30   0.64 -999 -999 -999 -99.9  63.8 -999.9 -9.9 -9.999 -99.9 -99.99 -9.99
2018/10/19 03:30 EDT    1.40   0.79 -999 -999 -999 -99.9  63.7 -999.9 -9.9 -9.999 -99.9 -99.99 -9.99
2018/10/19 03:36 EDT    1.51   0.95 -999 -999 -999 -99.9  63.6 -999.9 -9.9 -9.999 -99.9 -99.99 -9.99
2018/10/19 03:42 EDT    1.62   1.10 -999 -999 -999 -99.9  63.5 -999.9 -9.9 -9.999 -99.9 -99.99 -9.99
2018/10/19 03:48 EDT    1.74   1.25 -999 -999 -999 -99.9  63.5 -999.9 -9.9 -9.999 -99.9 -99.99 -9.99
2018/10/19 03:54 EDT    1.86   1.41 -999 -999 -999 -99.9  63.4 -999.9 -9.9 -9.999 -99.9 -99.99 -9.99
2018/10/19 04:00 EDT    1.97   1.58 -999 -999 -999 -99.9  63.4 -999.9 -9.9 -9.999 -99.9 -99.99 -9.99
2018/10/19 04:06 EDT    2.09   1.74 -999 -999 -999 -99.9  63.3 -999.9 -9.9 -9.999 -99.9 -99.99 -9.99
2018/10/19 04:12 EDT    2.21   1.87 -999 -999 -999 -99.9  63.3 -999.9 -9.9 -9.999 -99.9 -99.99 -9.99
2018/10/19 04:18 EDT    2.33   2.01 -999 -999 -999 -99.9  63.2 -999.9 -9.9 -9.999 -99.9 -99.99 -9.99
2018/10/19 04:24 EDT    2.45 -99.99 -999 -999 -999 -99.9 -99.9 -999.9 -9.9 -9.999 -99.9 -99.99 -9.99
2018/10/19 04:30 EDT    2.56   2.31 -999 -999 -999 -99.9  63.2 -999.9 -9.9 -9.999 -99.9 -99.99 -9.99
2018/10/19 04:36 EDT    2.67   2.43 -999 -999 -999 -99.9  63.1 -999.9 -9.9 -9.999 -99.9 -99.99 -9.99
2018/10/19 04:42 EDT    2.78   2.54 -999 -999 -999 -99.9  63.1 -999.9 -9.9 -9.999 -99.9 -99.99 -9.99
2018/10/19 04:48 EDT    2.89   2.68 -999 -999 -999 -99.9  63.0 -999.9 -9.9 -9.999 -99.9 -99.99 -9.99
2018/10/19 04:54 EDT    3.00   2.81 -999 -999 -999 -99.9  63.0 -999.9 -9.9 -9.999 -99.9 -99.99 -9.99
2018/10/19 05:00 EDT    3.10   2.91 -999 -999 -999 -99.9  63.0 -999.9 -9.9 -9.999 -99.9 -99.99 -9.99
2018/10/19 05:06 EDT    3.20   3.05 -999 -999 -999 -99.9  62.9 -999.9 -9.9 -9.999 -99.9 -99.99 -9.99
2018/10/19 05:12 EDT    3.30   3.17 -999 -999 -999 -99.9  62.9 -999.9 -9.9 -9.999 -99.9 -99.99 -9.99
2018/10/19 05:18 EDT    3.40   3.29 -999 -999 -999 -99.9  62.9 -999.9 -9.9 -9.999 -99.9 -99.99 -9.99
2018/10/19 05:24 EDT    3.50   3.60 -999 -999 -999 -99.9  62.8 -999.9 -9.9 -9.999 -99.9 -99.99 -9.99
2018/10/19 05:30 EDT    3.59   3.51 -999 -999 -999 -99.9  62.7 -999.9 -9.9 -9.999 -99.9 -99.99 -9.99
2018/10/19 05:36 EDT    3.69   3.70 -999 -999 -999 -99.9  62.7 -999.9 -9.9 -9.999 -99.9 -99.99 -9.99
2018/10/19 05:42 EDT    3.78   3.79 -999 -999 -999 -99.9  62.7 -999.9 -9.9 -9.999 -99.9 -99.99 -9.99
2018/10/19 05:48 EDT    3.87   3.88 -999 -999 -999 -99.9  62.7 -999.9 -9.9 -9.999 -99.9 -99.99 -9.99
2018/10/19 05:54 EDT    3.96   4.06 -999 -999 -999 -99.9  62.7 -999.9 -9.9 -9.999 -99.9 -99.99 -9.99
2018/10/19 06:00 EDT    4.05   4.13 -999 -999 -999 -99.9  62.7 -999.9 -9.9 -9.999 -99.9 -99.99 -9.99
2018/10/19 06:06 EDT    4.14   4.26 -999 -999 -999 -99.9  62.7 -999.9 -9.9 -9.999 -99.9 -99.99 -9.99
2018/10/19 06:12 EDT    4.23   4.36 -999 -999 -999 -99.9  62.7 -999.9 -9.9 -9.999 -99.9 -99.99 -9.99
2018/10/19 06:18 EDT    4.32   4.47 -999 -999 -999 -99.9  62.6 -999.9 -9.9 -9.999 -99.9 -99.99 -9.99
2018/10/19 06:24 EDT    4.41   4.60 -999 -999 -999 -99.9  62.6 -999.9 -9.9 -9.999 -99.9 -99.99 -9.99
2018/10/19 06:30 EDT    4.49   4.69 -999 -999 -999 -99.9  62.6 -999.9 -9.9 -9.999 -99.9 -99.99 -9.99
2018/10/19 06:36 EDT    4.57   4.78 -999 -999 -999 -99.9  62.6 -999.9 -9.9 -9.999 -99.9 -99.99 -9.99
2018/10/19 06:42 EDT    4.65   4.87 -999 -999 -999 -99.9  62.6 -999.9 -9.9 -9.999 -99.9 -99.99 -9.99
2018/10/19 06:48 EDT    4.73   4.94 -999 -999 -999 -99.9  62.6 -999.9 -9.9 -9.999 -99.9 -99.99 -9.99
2018/10/19 06:54 EDT    4.80   5.03 -999 -999 -999 -99.9  62.6 -999.9 -9.9 -9.999 -99.9 -99.99 -9.99
2018/10/19 07:00 EDT    4.87   5.11 -999 -999 -999 -99.9  62.6 -999.9 -9.9 -9.999 -99.9 -99.99 -9.99
2018/10/19 07:06 EDT    4.93   5.19 -999 -999 -999 -99.9  62.6 -999.9 -9.9 -9.999 -99.9 -99.99 -9.99
2018/10/19 07:12 EDT    4.99   5.22 -999 -999 -999 -99.9  62.5 -999.9 -9.9 -9.999 -99.9 -99.99 -9.99
2018/10/19 07:18 EDT    5.04   5.30 -999 -999 -999 -99.9  62.5 -999.9 -9.9 -9.999 -99.9 -99.99 -9.99
2018/10/19 07:24 EDT    5.09   5.32 -999 -999 -999 -99.9  62.5 -999.9 -9.9 -9.999 -99.9 -99.99 -9.99
2018/10/19 07:30 EDT    5.13   5.36 -999 -999 -999 -99.9  62.5 -999.9 -9.9 -9.999 -99.9 -99.99 -9.99
2018/10/19 07:36 EDT    5.17   5.41 -999 -999 -999 -99.9  62.5 -999.9 -9.9 -9.999 -99.9 -99.99 -9.99
2018/10/19 07:42 EDT    5.19   5.42 -999 -999 -999 -99.9  62.5 -999.9 -9.9 -9.999 -99.9 -99.99 -9.99
2018/10/19 07:48 EDT    5.21   5.45 -999 -999 -999 -99.9  62.5 -999.9 -9.9 -9.999 -99.9 -99.99 -9.99
2018/10/19 07:54 EDT    5.22   5.46 -999 -999 -999 -99.9  62.5 -999.9 -9.9 -9.999 -99.9 -99.99 -9.99
2018/10/19 08:00 EDT    5.23   5.46 -999 -999 -999 -99.9  62.5 -999.9 -9.9 -9.999 -99.9 -99.99 -9.99
2018/10/19 08:06 EDT    5.22 -99.99 -999 -999 -999 -99.9 -99.9 -999.9 -9.9 -9.999 -99.9 -99.99 -9.99
2018/10/19 08:12 EDT    5.21   5.46 -999 -999 -999 -99.9  62.5 -999.9 -9.9 -9.999 -99.9 -99.99 -9.99
2018/10/19 08:18 EDT    5.19   5.42 -999 -999 -999 -99.9  62.5 -999.9 -9.9 -9.999 -99.9 -99.99 -9.99
2018/10/19 08:24 EDT    5.16   5.39 -999 -999 -999 -99.9  62.5 -999.9 -9.9 -9.999 -99.9 -99.99 -9.99
2018/10/19 08:30 EDT    5.13   5.33 -999 -999 -999 -99.9  62.5 -999.9 -9.9 -9.999 -99.9 -99.99 -9.99
2018/10/19 08:36 EDT    5.09   5.29 -999 -999 -999 -99.9  62.5 -999.9 -9.9 -9.999 -99.9 -99.99 -9.99
2018/10/19 08:42 EDT    5.03   5.23 -999 -999 -999 -99.9  62.5 -999.9 -9.9 -9.999 -99.9 -99.99 -9.99
2018/10/19 08:48 EDT    4.98   5.16 -999 -999 -999 -99.9  62.5 -999.9 -9.9 -9.999 -99.9 -99.99 -9.99
2018/10/19 08:54 EDT    4.91   5.06 -999 -999 -999 -99.9  62.5 -999.9 -9.9 -9.999 -99.9 -99.99 -9.99
2018/10/19 09:00 EDT    4.84   4.98 -999 -999 -999 -99.9  62.5 -999.9 -9.9 -9.999 -99.9 -99.99 -9.99
2018/10/19 09:06 EDT    4.77   4.89 -999 -999 -999 -99.9  62.5 -999.9 -9.9 -9.999 -99.9 -99.99 -9.99
2018/10/19 09:12 EDT    4.68   4.78 -999 -999 -999 -99.9  62.5 -999.9 -9.9 -9.999 -99.9 -99.99 -9.99
2018/10/19 09:18 EDT    4.60   4.69 -999 -999 -999 -99.9  62.5 -999.9 -9.9 -9.999 -99.9 -99.99 -9.99
2018/10/19 09:24 EDT    4.50   4.57 -999 -999 -999 -99.9  62.5 -999.9 -9.9 -9.999 -99.9 -99.99 -9.99
2018/10/19 09:30 EDT    4.41   4.46 -999 -999 -999 -99.9  62.5 -999.9 -9.9 -9.999 -99.9 -99.99 -9.99
2018/10/19 09:36 EDT    4.31   4.36 -999 -999 -999 -99.9  62.5 -999.9 -9.9 -9.999 -99.9 -99.99 -9.99
2018/10/19 09:42 EDT    4.20   4.24 -999 -999 -999 -99.9  62.5 -999.9 -9.9 -9.999 -99.9 -99.99 -9.99
2018/10/19 09:48 EDT    4.09   4.13 -999 -999 -999 -99.9  62.5 -999.9 -9.9 -9.999 -99.9 -99.99 -9.99
2018/10/19 09:54 EDT    3.98   4.02 -999 -999 -999 -99.9  62.5 -999.9 -9.9 -9.999 -99.9 -99.99 -9.99
2018/10/19 10:00 EDT    3.87   3.90 -999 -999 -999 -99.9  62.5 -999.9 -9.9 -9.999 -99.9 -99.99 -9.99
2018/10/19 10:06 EDT    3.76   3.79 -999 -999 -999 -99.9  62.5 -999.9 -9.9 -9.999 -99.9 -99.99 -9.99
2018/10/19 10:12 EDT    3.64   3.68 -999 -999 -999 -99.9  62.5 -999.9 -9.9 -9.999 -99.9 -99.99 -9.99
2018/10/19 10:18 EDT    3.52   3.56 -999 -999 -999 -99.9  62.5 -999.9 -9.9 -9.999 -99.9 -99.99 -9.99
2018/10/19 10:24 EDT    3.41   3.45 -999 -999 -999 -99.9  62.5 -999.9 -9.9 -9.999 -99.9 -99.99 -9.99
2018/10/19 10:30 EDT    3.29   3.34 -999 -999 -999 -99.9  62.6 -999.9 -9.9 -9.999 -99.9 -99.99 -9.99
2018/10/19 10:36 EDT    3.17   3.23 -999 -999 -999 -99.9  62.7 -999.9 -9.9 -9.999 -99.9 -99.99 -9.99
2018/10/19 10:42 EDT    3.06   3.11 -999 -999 -999 -99.9  62.7 -999.9 -9.9 -9.999 -99.9 -99.99 -9.99
2018/10/19 10:48 EDT    2.94   3.00 -999 -999 -999 -99.9  62.7 -999.9 -9.9 -9.999 -99.9 -99.99 -9.99
2018/10/19 10:54 EDT    2.83   2.89 -999 -999 -999 -99.9  62.7 -999.9 -9.9 -9.999 -99.9 -99.99 -9.99
2018/10/19 11:00 EDT    2.72   2.80 -999 -999 -999 -99.9  62.7 -999.9 -9.9 -9.999 -99.9 -99.99 -9.99
2018/10/19 11:06 EDT    2.61   2.69 -999 -999 -999 -99.9  62.7 -999.9 -9.9 -9.999 -99.9 -99.99 -9.99
2018/10/19 11:12 EDT    2.51   2.59 -999 -999 -999 -99.9  63.4 -999.9 -9.9 -9.999 -99.9 -99.99 -9.99
2018/10/19 11:18 EDT    2.40   2.49 -999 -999 -999 -99.9  63.3 -999.9 -9.9 -9.999 -99.9 -99.99 -9.99
2018/10/19 11:24 EDT    2.30   2.40 -999 -999 -999 -99.9  63.2 -999.9 -9.9 -9.999 -99.9 -99.99 -9.99
2018/10/19 11:30 EDT    2.21   2.29 -999 -999 -999 -99.9  63.0 -999.9 -9.9 -9.999 -99.9 -99.99 -9.99
2018/10/19 11:36 EDT    2.11   2.20 -999 -999 -999 -99.9  63.0 -999.9 -9.9 -9.999 -99.9 -99.99 -9.99
2018/10/19 11:42 EDT    2.02   2.11 -999 -999 -999 -99.9  62.9 -999.9 -9.9 -9.999 -99.9 -99.99 -9.99
2018/10/19 11:48 EDT    1.93   2.02 -999 -999 -999 -99.9  62.9 -999.9 -9.9 -9.999 -99.9 -99.99 -9.99
2018/10/19 11:54 EDT    1.85   1.94 -999 -999 -999 -99.9  63.0 -999.9 -9.9 -9.999 -99.9 -99.99 -9.99
2018/10/19 12:00 EDT    1.77   1.85 -999 -999 -999 -99.9  63.1 -999.9 -9.9 -9.999 -99.9 -99.99 -9.99
2018/10/19 12:06 EDT    1.69   1.77 -999 -999 -999 -99.9  63.4 -999.9 -9.9 -9.999 -99.9 -99.99 -9.99
2018/10/19 12:12 EDT    1.61   1.70 -999 -999 -999 -99.9  63.3 -999.9 -9.9 -9.999 -99.9 -99.99 -9.99
2018/10/19 12:18 EDT    1.54   1.62 -999 -999 -999 -99.9  63.2 -999.9 -9.9 -9.999 -99.9 -99.99 -9.99
2018/10/19 12:24 EDT    1.47   1.55 -999 -999 -999 -99.9  63.8 -999.9 -9.9 -9.999 -99.9 -99.99 -9.99
2018/10/19 12:30 EDT    1.40   1.47 -999 -999 -999 -99.9  63.8 -999.9 -9.9 -9.999 -99.9 -99.99 -9.99
2018/10/19 12:36 EDT    1.33   1.40 -999 -999 -999 -99.9  63.8 -999.9 -9.9 -9.999 -99.9 -99.99 -9.99
2018/10/19 12:42 EDT    1.27   1.33 -999 -999 -999 -99.9  63.8 -999.9 -9.9 -9.999 -99.9 -99.99 -9.99
2018/10/19 12:48 EDT    1.21   1.26 -999 -999 -999 -99.9  63.8 -999.9 -9.9 -9.999 -99.9 -99.99 -9.99
2018/10/19 12:54 EDT    1.15   1.18 -999 -999 -999 -99.9  63.7 -999.9 -9.9 -9.999 -99.9 -99.99 -9.99
2018/10/19 13:00 EDT    1.09   1.13 -999 -999 -999 -99.9  63.5 -999.9 -9.9 -9.999 -99.9 -99.99 -9.99
2018/10/19 13:06 EDT    1.03   1.08 -999 -999 -999 -99.9  63.4 -999.9 -9.9 -9.999 -99.9 -99.99 -9.99
2018/10/19 13:12 EDT    0.98   1.01 -999 -999 -999 -99.9  63.4 -999.9 -9.9 -9.999 -99.9 -99.99 -9.99
2018/10/19 13:18 EDT    0.93   0.96 -999 -999 -999 -99.9  63.4 -999.9 -9.9 -9.999 -99.9 -99.99 -9.99
2018/10/19 13:24 EDT    0.88   0.90 -999 -999 -999 -99.9  63.4 -999.9 -9.9 -9.999 -99.9 -99.99 -9.99
2018/10/19 13:30 EDT    0.83   0.87 -999 -999 -999 -99.9  63.4 -999.9 -9.9 -9.999 -99.9 -99.99 -9.99
2018/10/19 13:36 EDT    0.79   0.78 -999 -999 -999 -99.9  63.3 -999.9 -9.9 -9.999 -99.9 -99.99 -9.99
2018/10/19 13:42 EDT    0.76   0.76 -999 -999 -999 -99.9  63.3 -999.9 -9.9 -9.999 -99.9 -99.99 -9.99
2018/10/19 13:48 EDT    0.72   0.72 -999 -999 -999 -99.9  63.3 -999.9 -9.9 -9.999 -99.9 -99.99 -9.99
2018/10/19 13:54 EDT    0.70   0.70 -999 -999 -999 -99.9  63.3 -999.9 -9.9 -9.999 -99.9 -99.99 -9.99
2018/10/19 14:00 EDT    0.67   0.65 -999 -999 -999 -99.9  63.2 -999.9 -9.9 -9.999 -99.9 -99.99 -9.99
2018/10/19 14:06 EDT    0.66   0.64 -999 -999 -999 -99.9  63.2 -999.9 -9.9 -9.999 -99.9 -99.99 -9.99
2018/10/19 14:12 EDT    0.65   0.62 -999 -999 -999 -99.9  63.2 -999.9 -9.9 -9.999 -99.9 -99.99 -9.99
2018/10/19 14:18 EDT    0.65   0.63 -999 -999 -999 -99.9  63.2 -999.9 -9.9 -9.999 -99.9 -99.99 -9.99
2018/10/19 14:24 EDT    0.66   0.63 -999 -999 -999 -99.9  63.1 -999.9 -9.9 -9.999 -99.9 -99.99 -9.99
2018/10/19 14:30 EDT    0.67   0.64 -999 -999 -999 -99.9  63.1 -999.9 -9.9 -9.999 -99.9 -99.99 -9.99
2018/10/19 14:36 EDT    0.70   0.68 -999 -999 -999 -99.9  63.1 -999.9 -9.9 -9.999 -99.9 -99.99 -9.99
2018/10/19 14:42 EDT    0.73   0.71 -999 -999 -999 -99.9  63.1 -999.9 -9.9 -9.999 -99.9 -99.99 -9.99
2018/10/19 14:48 EDT    0.77   0.76 -999 -999 -999 -99.9  63.2 -999.9 -9.9 -9.999 -99.9 -99.99 -9.99
2018/10/19 14:54 EDT    0.82   0.84 -999 -999 -999 -99.9  63.2 -999.9 -9.9 -9.999 -99.9 -99.99 -9.99
2018/10/19 15:00 EDT    0.89   0.92 -999 -999 -999 -99.9  63.2 -999.9 -9.9 -9.999 -99.9 -99.99 -9.99
2018/10/19 15:06 EDT    0.96   1.01 -999 -999 -999 -99.9  63.1 -999.9 -9.9 -9.999 -99.9 -99.99 -9.99
2018/10/19 15:12 EDT    1.04   1.12 -999 -999 -999 -99.9  63.1 -999.9 -9.9 -9.999 -99.9 -99.99 -9.99
2018/10/19 15:18 EDT    1.13   1.22 -999 -999 -999 -99.9  63.0 -999.9 -9.9 -9.999 -99.9 -99.99 -9.99
2018/10/19 15:24 EDT    1.22   1.32 -999 -999 -999 -99.9  63.0 -999.9 -9.9 -9.999 -99.9 -99.99 -9.99
2018/10/19 15:30 EDT    1.33   1.45 -999 -999 -999 -99.9  63.0 -999.9 -9.9 -9.999 -99.9 -99.99 -9.99
2018/10/19 15:36 EDT    1.44 -99.99 -999 -999 -999 -99.9 -99.9 -999.9 -9.9 -9.999 -99.9 -99.99 -9.99
2018/10/19 15:42 EDT    1.56 -99.99 -999 -999 -999 -99.9 -99.9 -999.9 -9.9 -9.999 -99.9 -99.99 -9.99
2018/10/19 15:48 EDT    1.68 -99.99 -999 -999 -999 -99.9 -99.9 -999.9 -9.9 -9.999 -99.9 -99.99 -9.99
2018/10/19 15:54 EDT    1.81 -99.99 -999 -999 -999 -99.9 -99.9 -999.9 -9.9 -9.999 -99.9 -99.99 -9.99
2018/10/19 16:00 EDT    1.94 -99.99 -999 -999 -999 -99.9 -99.9 -999.9 -9.9 -9.999 -99.9 -99.99 -9.99
2018/10/19 16:06 EDT    2.07 -99.99 -999 -999 -999 -99.9 -99.9 -999.9 -9.9 -9.999 -99.9 -99.99 -9.99
2018/10/19 16:12 EDT    2.21 -99.99 -999 -999 -999 -99.9 -99.9 -999.9 -9.9 -9.999 -99.9 -99.99 -9.99
2018/10/19 16:18 EDT    2.35 -99.99 -999 -999 -999 -99.9 -99.9 -999.9 -9.9 -9.999 -99.9 -99.99 -9.99
2018/10/19 16:24 EDT    2.48 -99.99 -999 -999 -999 -99.9 -99.9 -999.9 -9.9 -9.999 -99.9 -99.99 -9.99
2018/10/19 16:30 EDT    2.62 -99.99 -999 -999 -999 -99.9 -99.9 -999.9 -9.9 -9.999 -99.9 -99.99 -9.99
2018/10/19 16:36 EDT    2.75 -99.99 -999 -999 -999 -99.9 -99.9 -999.9 -9.9 -9.999 -99.9 -99.99 -9.99
2018/10/19 16:42 EDT    2.89 -99.99 -999 -999 -999 -99.9 -99.9 -999.9 -9.9 -9.999 -99.9 -99.99 -9.99
2018/10/19 16:48 EDT    3.02 -99.99 -999 -999 -999 -99.9 -99.9 -999.9 -9.9 -9.999 -99.9 -99.99 -9.99
2018/10/19 16:54 EDT    3.15 -99.99 -999 -999 -999 -99.9 -99.9 -999.9 -9.9 -9.999 -99.9 -99.99 -9.99
2018/10/19 17:00 EDT    3.27 -99.99 -999 -999 -999 -99.9 -99.9 -999.9 -9.9 -9.999 -99.9 -99.99 -9.99
2018/10/19 17:06 EDT    3.39 -99.99 -999 -999 -999 -99.9 -99.9 -999.9 -9.9 -9.999 -99.9 -99.99 -9.99
2018/10/19 17:12 EDT    3.51 -99.99 -999 -999 -999 -99.9 -99.9 -999.9 -9.9 -9.999 -99.9 -99.99 -9.99
2018/10/19 17:18 EDT    3.63 -99.99 -999 -999 -999 -99.9 -99.9 -999.9 -9.9 -9.999 -99.9 -99.99 -9.99
2018/10/19 17:24 EDT    3.74 -99.99 -999 -999 -999 -99.9 -99.9 -999.9 -9.9 -9.999 -99.9 -99.99 -9.99
2018/10/19 17:30 EDT    3.84 -99.99 -999 -999 -999 -99.9 -99.9 -999.9 -9.9 -9.999 -99.9 -99.99 -9.99
2018/10/19 17:36 EDT    3.95 -99.99 -999 -999 -999 -99.9 -99.9 -999.9 -9.9 -9.999 -99.9 -99.99 -9.99
2018/10/19 17:42 EDT    4.05 -99.99 -999 -999 -999 -99.9 -99.9 -999.9 -9.9 -9.999 -99.9 -99.99 -9.99
2018/10/19 17:48 EDT    4.15 -99.99 -999 -999 -999 -99.9 -99.9 -999.9 -9.9 -9.999 -99.9 -99.99 -9.99
2018/10/19 17:54 EDT    4.25 -99.99 -999 -999 -999 -99.9 -99.9 -999.9 -9.9 -9.999 -99.9 -99.99 -9.99
2018/10/19 18:00 EDT    4.34 -99.99 -999 -999 -999 -99.9 -99.9 -999.9 -9.9 -9.999 -99.9 -99.99 -9.99
2018/10/19 18:06 EDT    4.43 -99.99 -999 -999 -999 -99.9 -99.9 -999.9 -9.9 -9.999 -99.9 -99.99 -9.99
2018/10/19 18:12 EDT    4.52 -99.99 -999 -999 -999 -99.9 -99.9 -999.9 -9.9 -9.999 -99.9 -99.99 -9.99
2018/10/19 18:18 EDT    4.61 -99.99 -999 -999 -999 -99.9 -99.9 -999.9 -9.9 -9.999 -99.9 -99.99 -9.99
2018/10/19 18:24 EDT    4.70 -99.99 -999 -999 -999 -99.9 -99.9 -999.9 -9.9 -9.999 -99.9 -99.99 -9.99
2018/10/19 18:30 EDT    4.78 -99.99 -999 -999 -999 -99.9 -99.9 -999.9 -9.9 -9.999 -99.9 -99.99 -9.99
2018/10/19 18:36 EDT    4.87 -99.99 -999 -999 -999 -99.9 -99.9 -999.9 -9.9 -9.999 -99.9 -99.99 -9.99
2018/10/19 18:42 EDT    4.95 -99.99 -999 -999 -999 -99.9 -99.9 -999.9 -9.9 -9.999 -99.9 -99.99 -9.99
2018/10/19 18:48 EDT    5.03 -99.99 -999 -999 -999 -99.9 -99.9 -999.9 -9.9 -9.999 -99.9 -99.99 -9.99
2018/10/19 18:54 EDT    5.10 -99.99 -999 -999 -999 -99.9 -99.9 -999.9 -9.9 -9.999 -99.9 -99.99 -9.99
2018/10/19 19:00 EDT    5.18 -99.99 -999 -999 -999 -99.9 -99.9 -999.9 -9.9 -9.999 -99.9 -99.99 -9.99
2018/10/19 19:06 EDT    5.25 -99.99 -999 -999 -999 -99.9 -99.9 -999.9 -9.9 -9.999 -99.9 -99.99 -9.99
2018/10/19 19:12 EDT    5.32 -99.99 -999 -999 -999 -99.9 -99.9 -999.9 -9.9 -9.999 -99.9 -99.99 -9.99
2018/10/19 19:18 EDT    5.38 -99.99 -999 -999 -999 -99.9 -99.9 -999.9 -9.9 -9.999 -99.9 -99.99 -9.99
2018/10/19 19:24 EDT    5.44 -99.99 -999 -999 -999 -99.9 -99.9 -999.9 -9.9 -9.999 -99.9 -99.99 -9.99
2018/10/19 19:30 EDT    5.50 -99.99 -999 -999 -999 -99.9 -99.9 -999.9 -9.9 -9.999 -99.9 -99.99 -9.99
2018/10/19 19:36 EDT    5.55 -99.99 -999 -999 -999 -99.9 -99.9 -999.9 -9.9 -9.999 -99.9 -99.99 -9.99
2018/10/19 19:42 EDT    5.59 -99.99 -999 -999 -999 -99.9 -99.9 -999.9 -9.9 -9.999 -99.9 -99.99 -9.99
2018/10/19 19:48 EDT    5.63 -99.99 -999 -999 -999 -99.9 -99.9 -999.9 -9.9 -9.999 -99.9 -99.99 -9.99
2018/10/19 19:54 EDT    5.66 -99.99 -999 -999 -999 -99.9 -99.9 -999.9 -9.9 -9.999 -99.9 -99.99 -9.99
2018/10/19 20:00 EDT    5.69 -99.99 -999 -999 -999 -99.9 -99.9 -999.9 -9.9 -9.999 -99.9 -99.99 -9.99
2018/10/19 20:06 EDT    5.70 -99.99 -999 -999 -999 -99.9 -99.9 -999.9 -9.9 -9.999 -99.9 -99.99 -9.99
2018/10/19 20:12 EDT    5.72 -99.99 -999 -999 -999 -99.9 -99.9 -999.9 -9.9 -9.999 -99.9 -99.99 -9.99
2018/10/19 20:18 EDT    5.72 -99.99 -999 -999 -999 -99.9 -99.9 -999.9 -9.9 -9.999 -99.9 -99.99 -9.99
2018/10/19 20:24 EDT    5.72 -99.99 -999 -999 -999 -99.9 -99.9 -999.9 -9.9 -9.999 -99.9 -99.99 -9.99
2018/10/19 20:30 EDT    5.70 -99.99 -999 -999 -999 -99.9 -99.9 -999.9 -9.9 -9.999 -99.9 -99.99 -9.99
2018/10/19 20:36 EDT    5.68 -99.99 -999 -999 -999 -99.9 -99.9 -999.9 -9.9 -9.999 -99.9 -99.99 -9.99
2018/10/19 20:42 EDT    5.66 -99.99 -999 -999 -999 -99.9 -99.9 -999.9 -9.9 -9.999 -99.9 -99.99 -9.99
2018/10/19 20:48 EDT    5.62 -99.99 -999 -999 -999 -99.9 -99.9 -999.9 -9.9 -9.999 -99.9 -99.99 -9.99
2018/10/19 20:54 EDT    5.58 -99.99 -999 -999 -999 -99.9 -99.9 -999.9 -9.9 -9.999 -99.9 -99.99 -9.99
2018/10/19 21:00 EDT    5.53 -99.99 -999 -999 -999 -99.9 -99.9 -999.9 -9.9 -9.999 -99.9 -99.99 -9.99
2018/10/19 21:06 EDT    5.48 -99.99 -999 -999 -999 -99.9 -99.9 -999.9 -9.9 -9.999 -99.9 -99.99 -9.99
2018/10/19 21:12 EDT    5.42 -99.99 -999 -999 -999 -99.9 -99.9 -999.9 -9.9 -9.999 -99.9 -99.99 -9.99
2018/10/19 21:18 EDT    5.35 -99.99 -999 -999 -999 -99.9 -99.9 -999.9 -9.9 -9.999 -99.9 -99.99 -9.99
2018/10/19 21:24 EDT    5.27 -99.99 -999 -999 -999 -99.9 -99.9 -999.9 -9.9 -9.999 -99.9 -99.99 -9.99
2018/10/19 21:30 EDT    5.19 -99.99 -999 -999 -999 -99.9 -99.9 -999.9 -9.9 -9.999 -99.9 -99.99 -9.99
2018/10/19 21:36 EDT    5.11 -99.99 -999 -999 -999 -99.9 -99.9 -999.9 -9.9 -9.999 -99.9 -99.99 -9.99

Revised: 08/08/2018
NOAA / National Ocean Service
Web site owner: Center for Operational Oceanographic Products and Services